LER9384 KMIA-SVMI
Flight info
| Callsign | LER9384 |
|---|---|
| Flight time | N/A |
| Altitude | 31000 |
| Route | GWAVA2 URSUS UP406 BILSI UL795 GELOG DCT SIMGA DCT TARBA UA511 PENKO UA315 PJG UL339 VUNUM DCT ISISU ALDAK1 |
| Aircraft | MD88/M-SDFGIRWY/C |
Departure
| Time | 2026-04-30 18:20 |
|---|---|
| Airport | Miami International Airport (KMIA) |
Arrival
| Time | N/A |
|---|---|
| Airport | Maiquetía Simón Bolívar International Airport (SVMI) |
| Time | Latitude | Longitude | Altitude | Speed | Heading |
|---|---|---|---|---|---|
| 2026-04-30 17:53 | 25.79473 | -80.28465 | 13 ft | 0 kts | 64° |
| 2026-04-30 18:07 | 25.79449 | -80.28521 | 12 ft | 2 kts | 70° |
| 2026-04-30 18:08 | 25.79464 | -80.28566 | 12 ft | 2 kts | 150° |
| 2026-04-30 18:09 | 25.79485 | -80.28572 | 12 ft | 0 kts | 178° |
| 2026-04-30 18:11 | 25.79337 | -80.28590 | 12 ft | 11 kts | 239° |
| 2026-04-30 18:12 | 25.79331 | -80.28809 | 12 ft | 9 kts | 300° |
| 2026-04-30 18:13 | 25.79413 | -80.28970 | 12 ft | 16 kts | 300° |
| 2026-04-30 18:13 | 25.79565 | -80.29269 | 12 ft | 16 kts | 300° |
| 2026-04-30 18:14 | 25.79620 | -80.29377 | 12 ft | 0 kts | 300° |
| 2026-04-30 18:15 | 25.79434 | -80.29456 | 12 ft | 15 kts | 193° |
| 2026-04-30 18:15 | 25.79407 | -80.29582 | 12 ft | 4 kts | 189° |
| 2026-04-30 18:16 | 25.79476 | -80.29452 | 12 ft | 18 kts | 1° |
| 2026-04-30 18:16 | 25.79719 | -80.29570 | 12 ft | 21 kts | 300° |
| 2026-04-30 18:17 | 25.79791 | -80.29711 | 12 ft | 20 kts | 300° |
| 2026-04-30 18:17 | 25.79857 | -80.29840 | 12 ft | 18 kts | 300° |
| 2026-04-30 18:17 | 25.79934 | -80.30067 | 12 ft | 12 kts | 286° |
| 2026-04-30 18:18 | 25.79956 | -80.30157 | 12 ft | 11 kts | 283° |
| 2026-04-30 18:18 | 25.79926 | -80.30200 | 12 ft | 6 kts | 166° |
| 2026-04-30 18:18 | 25.79902 | -80.30174 | 12 ft | 0 kts | 120° |
| 2026-04-30 18:19 | 25.79895 | -80.30160 | 12 ft | 13 kts | 120° |
| 2026-04-30 18:19 | 25.79704 | -80.29787 | 12 ft | 98 kts | 120° |
| 2026-04-30 18:19 | 25.79239 | -80.28876 | 12 ft | 173 kts | 120° |
| 2026-04-30 18:19 | 25.78557 | -80.27543 | 324 ft | 215 kts | 121° |
| 2026-04-30 18:20 | 25.77869 | -80.26131 | 1639 ft | 207 kts | 120° |
| 2026-04-30 18:20 | 25.77195 | -80.24713 | 2684 ft | 211 kts | 118° |
| 2026-04-30 18:20 | 25.76534 | -80.23228 | 3359 ft | 233 kts | 118° |
| 2026-04-30 18:20 | 25.75567 | -80.21732 | 3699 ft | 244 kts | 129° |
| 2026-04-30 18:21 | 25.74479 | -80.20167 | 4203 ft | 263 kts | 135° |
| 2026-04-30 18:21 | 25.73025 | -80.19141 | 4851 ft | 250 kts | 162° |
| 2026-04-30 18:21 | 25.71317 | -80.18954 | 5475 ft | 248 kts | 185° |
| 2026-04-30 18:21 | 25.69634 | -80.18968 | 6254 ft | 244 kts | 180° |
| 2026-04-30 18:22 | 25.67905 | -80.18964 | 6866 ft | 246 kts | 183° |
| 2026-04-30 18:22 | 25.64195 | -80.19420 | 8070 ft | 254 kts | 189° |
| 2026-04-30 18:22 | 25.62336 | -80.19647 | 8606 ft | 259 kts | 182° |
| 2026-04-30 18:23 | 25.60449 | -80.19502 | 9147 ft | 264 kts | 171° |
| 2026-04-30 18:23 | 25.58607 | -80.18958 | 9678 ft | 269 kts | 160° |
| 2026-04-30 18:23 | 25.56798 | -80.17994 | 10261 ft | 291 kts | 149° |
| 2026-04-30 18:23 | 25.55169 | -80.16518 | 10841 ft | 303 kts | 136° |
| 2026-04-30 18:24 | 25.51850 | -80.13551 | 11877 ft | 310 kts | 145° |
| 2026-04-30 18:24 | 25.50059 | -80.12194 | 12385 ft | 314 kts | 147° |
| 2026-04-30 18:24 | 25.48182 | -80.10851 | 12900 ft | 317 kts | 148° |
| 2026-04-30 18:25 | 25.46271 | -80.09531 | 13412 ft | 319 kts | 149° |
| 2026-04-30 18:25 | 25.42406 | -80.06930 | 14425 ft | 324 kts | 150° |
| 2026-04-30 18:25 | 25.40449 | -80.05630 | 14929 ft | 325 kts | 150° |
| 2026-04-30 18:26 | 25.36530 | -80.03040 | 15928 ft | 327 kts | 151° |
| 2026-04-30 18:26 | 25.34572 | -80.01749 | 16423 ft | 327 kts | 151° |
| 2026-04-30 18:26 | 25.32616 | -80.00460 | 16915 ft | 327 kts | 151° |
| 2026-04-30 18:27 | 25.28152 | -79.97521 | 17806 ft | 330 kts | 152° |
| 2026-04-30 18:27 | 25.25960 | -79.96066 | 18223 ft | 332 kts | 149° |
| 2026-04-30 18:28 | 25.21708 | -79.93042 | 19041 ft | 335 kts | 150° |
| 2026-04-30 18:28 | 25.19534 | -79.91502 | 19455 ft | 336 kts | 150° |
| 2026-04-30 18:28 | 25.15428 | -79.88595 | 20231 ft | 337 kts | 150° |
| 2026-04-30 18:29 | 25.13451 | -79.87196 | 20602 ft | 337 kts | 150° |
| 2026-04-30 18:29 | 25.07462 | -79.82959 | 21564 ft | 341 kts | 150° |
| 2026-04-30 18:30 | 25.03422 | -79.80101 | 22088 ft | 347 kts | 150° |
| 2026-04-30 18:30 | 24.99347 | -79.77217 | 22605 ft | 352 kts | 150° |
| 2026-04-30 18:31 | 24.97283 | -79.75756 | 22864 ft | 354 kts | 150° |
| 2026-04-30 18:31 | 24.93087 | -79.72786 | 23380 ft | 359 kts | 150° |
| 2026-04-30 18:32 | 24.88881 | -79.69807 | 23890 ft | 362 kts | 150° |
| 2026-04-30 18:32 | 24.86767 | -79.68323 | 24144 ft | 364 kts | 150° |
| 2026-04-30 18:32 | 24.82466 | -79.65308 | 24656 ft | 367 kts | 150° |
| 2026-04-30 18:33 | 24.80300 | -79.63789 | 24911 ft | 368 kts | 150° |
| 2026-04-30 18:33 | 24.75954 | -79.60742 | 25421 ft | 370 kts | 150° |
| 2026-04-30 18:33 | 24.73786 | -79.59222 | 25673 ft | 370 kts | 151° |
| 2026-04-30 18:34 | 24.71627 | -79.57708 | 25924 ft | 371 kts | 151° |
| 2026-04-30 18:34 | 24.67265 | -79.54648 | 26428 ft | 371 kts | 151° |
| 2026-04-30 18:34 | 24.65095 | -79.53126 | 26679 ft | 371 kts | 151° |
| 2026-04-30 18:35 | 24.62925 | -79.51604 | 26928 ft | 371 kts | 151° |
| 2026-04-30 18:35 | 24.60759 | -79.50085 | 27177 ft | 370 kts | 151° |
| 2026-04-30 18:35 | 24.58575 | -79.48552 | 27427 ft | 369 kts | 151° |
| 2026-04-30 18:36 | 24.54264 | -79.45526 | 27921 ft | 367 kts | 151° |
| 2026-04-30 18:36 | 24.52114 | -79.44018 | 28168 ft | 366 kts | 151° |
| 2026-04-30 18:36 | 24.47803 | -79.40994 | 28481 ft | 376 kts | 151° |
| 2026-04-30 18:37 | 24.45560 | -79.39422 | 28665 ft | 388 kts | 151° |
| 2026-04-30 18:37 | 24.43266 | -79.37811 | 28920 ft | 398 kts | 151° |
| 2026-04-30 18:37 | 24.40920 | -79.36165 | 29214 ft | 407 kts | 151° |
| 2026-04-30 18:37 | 24.38524 | -79.34482 | 29506 ft | 415 kts | 151° |
| 2026-04-30 18:38 | 24.36058 | -79.32751 | 29782 ft | 424 kts | 151° |
| 2026-04-30 18:38 | 24.33574 | -79.31006 | 30048 ft | 427 kts | 151° |
| 2026-04-30 18:38 | 24.31087 | -79.29258 | 30282 ft | 425 kts | 151° |
| 2026-04-30 18:38 | 24.28616 | -79.27507 | 30517 ft | 423 kts | 151° |
| 2026-04-30 18:39 | 24.26164 | -79.25752 | 30751 ft | 421 kts | 151° |
| 2026-04-30 18:39 | 24.23725 | -79.24004 | 30967 ft | 420 kts | 151° |
| 2026-04-30 18:39 | 24.21280 | -79.22252 | 30985 ft | 423 kts | 151° |
| 2026-04-30 18:40 | 24.16344 | -79.18711 | 31005 ft | 431 kts | 150° |
| 2026-04-30 18:40 | 24.11291 | -79.15085 | 31006 ft | 438 kts | 150° |
| 2026-04-30 18:41 | 24.06171 | -79.11407 | 31006 ft | 445 kts | 150° |
| 2026-04-30 18:41 | 24.00934 | -79.07784 | 30996 ft | 448 kts | 157° |
| 2026-04-30 18:42 | 23.95069 | -79.05775 | 31009 ft | 443 kts | 176° |
| 2026-04-30 18:42 | 23.85913 | -79.04172 | 31002 ft | 451 kts | 173° |
| 2026-04-30 18:45 | 23.54685 | -78.98038 | 30994 ft | 462 kts | 173° |
| 2026-04-30 18:45 | 23.51534 | -78.97418 | 30994 ft | 463 kts | 173° |
| 2026-04-30 18:46 | 23.45194 | -78.96169 | 30994 ft | 464 kts | 173° |
| 2026-04-30 18:46 | 23.38866 | -78.94921 | 30993 ft | 464 kts | 173° |
| 2026-04-30 18:47 | 23.32549 | -78.93676 | 30993 ft | 465 kts | 173° |
| 2026-04-30 18:47 | 23.26184 | -78.92421 | 30993 ft | 465 kts | 173° |
| 2026-04-30 18:48 | 23.19925 | -78.90725 | 30997 ft | 470 kts | 160° |
| 2026-04-30 18:48 | 23.14361 | -78.87064 | 31001 ft | 477 kts | 143° |
| 2026-04-30 18:49 | 23.09168 | -78.82593 | 30995 ft | 477 kts | 145° |
| 2026-04-30 18:49 | 23.03937 | -78.78234 | 30990 ft | 477 kts | 145° |
| 2026-04-30 18:50 | 22.98671 | -78.73872 | 30967 ft | 478 kts | 145° |
| 2026-04-30 18:50 | 22.93383 | -78.69494 | 30967 ft | 478 kts | 145° |
| 2026-04-30 18:51 | 22.88102 | -78.65122 | 30968 ft | 479 kts | 144° |
| 2026-04-30 18:51 | 22.82833 | -78.60760 | 30968 ft | 479 kts | 144° |
| 2026-04-30 18:52 | 22.77567 | -78.56398 | 30969 ft | 479 kts | 144° |
| 2026-04-30 18:52 | 22.72287 | -78.52012 | 30968 ft | 479 kts | 144° |
| 2026-04-30 18:53 | 22.67023 | -78.47634 | 30969 ft | 479 kts | 144° |
| 2026-04-30 18:53 | 22.61757 | -78.43255 | 30969 ft | 480 kts | 144° |
| 2026-04-30 18:54 | 22.56492 | -78.38876 | 30969 ft | 480 kts | 144° |
| 2026-04-30 18:54 | 22.51218 | -78.34487 | 30968 ft | 480 kts | 144° |
| 2026-04-30 18:55 | 22.45930 | -78.30097 | 30964 ft | 480 kts | 144° |
| 2026-04-30 18:55 | 22.38039 | -78.23554 | 30965 ft | 479 kts | 144° |
| 2026-04-30 18:56 | 22.30138 | -78.17002 | 30964 ft | 479 kts | 144° |
| 2026-04-30 18:57 | 22.22210 | -78.10426 | 30965 ft | 479 kts | 144° |
| 2026-04-30 18:57 | 22.16958 | -78.06068 | 30965 ft | 479 kts | 144° |
| 2026-04-30 18:58 | 22.09063 | -77.99515 | 30966 ft | 479 kts | 144° |
| 2026-04-30 18:59 | 22.01158 | -77.92952 | 30979 ft | 479 kts | 144° |
| 2026-04-30 19:00 | 21.90624 | -77.84203 | 30993 ft | 479 kts | 144° |
| 2026-04-30 19:01 | 21.80032 | -77.75555 | 30994 ft | 480 kts | 145° |
| 2026-04-30 19:02 | 21.72102 | -77.69092 | 30994 ft | 480 kts | 145° |
| 2026-04-30 19:03 | 21.61481 | -77.60432 | 30995 ft | 480 kts | 145° |
| 2026-04-30 19:04 | 21.50878 | -77.51784 | 30996 ft | 480 kts | 144° |
| 2026-04-30 19:05 | 21.40262 | -77.43122 | 30996 ft | 480 kts | 144° |
| 2026-04-30 19:06 | 21.29637 | -77.34541 | 30996 ft | 480 kts | 145° |
| 2026-04-30 19:06 | 21.21645 | -77.28099 | 30991 ft | 480 kts | 145° |
| 2026-04-30 19:07 | 21.13660 | -77.21659 | 30986 ft | 480 kts | 145° |
| 2026-04-30 19:08 | 21.03028 | -77.13082 | 30977 ft | 480 kts | 145° |
| 2026-04-30 19:09 | 20.95080 | -77.06667 | 30970 ft | 479 kts | 145° |
| 2026-04-30 19:09 | 20.89769 | -77.02389 | 30965 ft | 479 kts | 145° |
| 2026-04-30 19:10 | 20.79154 | -76.93903 | 30966 ft | 478 kts | 144° |
| 2026-04-30 19:11 | 20.71173 | -76.87521 | 30966 ft | 479 kts | 144° |
| 2026-04-30 19:12 | 20.65813 | -76.83234 | 30966 ft | 479 kts | 144° |
| 2026-04-30 19:12 | 20.60479 | -76.78967 | 30967 ft | 479 kts | 144° |
| 2026-04-30 19:13 | 20.49824 | -76.70441 | 30967 ft | 479 kts | 144° |
| 2026-04-30 19:14 | 20.44524 | -76.66198 | 30967 ft | 479 kts | 144° |
| 2026-04-30 19:14 | 20.39180 | -76.61925 | 30967 ft | 479 kts | 144° |
| 2026-04-30 19:15 | 20.33870 | -76.57707 | 30967 ft | 479 kts | 144° |
| 2026-04-30 19:15 | 20.25875 | -76.51365 | 30968 ft | 479 kts | 144° |
| 2026-04-30 19:16 | 20.20553 | -76.47144 | 30968 ft | 480 kts | 144° |
| 2026-04-30 19:17 | 20.12552 | -76.40795 | 30968 ft | 480 kts | 144° |
| 2026-04-30 19:17 | 20.04566 | -76.34457 | 30968 ft | 480 kts | 144° |
| 2026-04-30 19:18 | 19.96558 | -76.28101 | 30965 ft | 480 kts | 144° |
| 2026-04-30 19:19 | 19.91229 | -76.23869 | 30965 ft | 480 kts | 144° |
| 2026-04-30 19:19 | 19.83264 | -76.17542 | 30965 ft | 480 kts | 144° |
| 2026-04-30 19:20 | 19.77917 | -76.13294 | 30965 ft | 480 kts | 144° |
| 2026-04-30 19:21 | 19.69937 | -76.06952 | 30965 ft | 480 kts | 144° |
| 2026-04-30 19:22 | 19.59285 | -75.98493 | 30966 ft | 480 kts | 144° |
| 2026-04-30 19:23 | 19.43240 | -75.85950 | 30966 ft | 480 kts | 144° |
| 2026-04-30 19:24 | 19.35224 | -75.79688 | 30967 ft | 480 kts | 144° |
| 2026-04-30 19:25 | 19.21812 | -75.69207 | 30967 ft | 480 kts | 144° |
| 2026-04-30 19:26 | 19.11104 | -75.60834 | 30974 ft | 480 kts | 144° |
| 2026-04-30 19:27 | 19.03100 | -75.54575 | 30983 ft | 480 kts | 144° |